createdAt,value
2023-05-09T00:00:41.061Z,11.25
2023-05-09T00:03:12.933Z,10.69
2023-05-09T00:05:42.970Z,11.34
2023-05-09T00:08:15.521Z,11.54
2023-05-09T00:10:45.415Z,11.27
2023-05-09T00:13:15.430Z,11.24
2023-05-09T00:15:46.818Z,11.34
2023-05-09T00:18:18.216Z,10.99
2023-05-09T00:20:48.174Z,11.01
2023-05-09T00:23:20.684Z,10.55
2023-05-09T00:25:51.023Z,11.02
2023-05-09T00:28:20.962Z,10.45
2023-05-09T00:30:51.192Z,10.63
2023-05-09T00:33:21.876Z,11.10
2023-05-09T00:35:51.784Z,11.78
2023-05-09T00:38:25.326Z,12.54
2023-05-09T00:40:55.339Z,13.36
2023-05-09T00:43:25.317Z,15.49
2023-05-09T00:45:55.633Z,16.07
2023-05-09T00:48:25.718Z,16.08
2023-05-09T00:50:56.558Z,16.93
2023-05-09T00:53:29.727Z,17.06
2023-05-09T00:56:00.850Z,17.35
2023-05-09T00:58:31.398Z,17.10
2023-05-09T01:01:03.877Z,18.06
2023-05-09T01:03:35.141Z,18.21
2023-05-09T01:06:15.011Z,17.73
2023-05-09T01:09:01.634Z,19.61
2023-05-09T01:11:35.777Z,19.57
2023-05-09T01:14:15.893Z,19.76
2023-05-09T01:16:57.021Z,20.51
2023-05-09T01:19:59.482Z,21.53
2023-05-09T01:22:36.154Z,22.18
2023-05-09T01:25:36.364Z,22.88
2023-05-09T01:28:17.088Z,23.05
2023-05-09T01:30:54.174Z,23.84
2023-05-09T01:33:29.382Z,23.65
2023-05-09T01:36:06.776Z,24.56
2023-05-09T01:38:40.589Z,24.30
2023-05-09T01:41:15.042Z,22.69
2023-05-09T01:43:48.707Z,22.76
2023-05-09T01:46:24.724Z,22.68
2023-05-09T01:48:57.244Z,22.38
2023-05-09T01:51:27.677Z,21.97
2023-05-09T01:54:00.594Z,21.25
2023-05-09T01:56:31.249Z,20.81
2023-05-09T01:59:05.122Z,21.38
2023-05-09T02:01:38.869Z,21.30
2023-05-09T02:04:08.950Z,20.32
2023-05-09T02:06:40.448Z,20.05
2023-05-09T02:09:11.504Z,19.94
2023-05-09T02:11:41.511Z,20.24
2023-05-09T02:14:11.632Z,19.83
2023-05-09T02:16:45.482Z,19.51
2023-05-09T02:19:15.473Z,19.71
2023-05-09T02:21:45.463Z,19.61
2023-05-09T02:24:15.721Z,19.53
2023-05-09T02:26:46.842Z,18.54
2023-05-09T02:29:22.576Z,18.83
2023-05-09T02:31:56.650Z,18.81
2023-05-09T02:34:28.143Z,18.22
2023-05-09T02:36:59.648Z,18.84
2023-05-09T02:39:30.746Z,18.68
2023-05-09T02:42:10.024Z,17.66
2023-05-09T02:44:40.316Z,17.76
2023-05-09T02:47:12.814Z,18.19
2023-05-09T02:49:42.739Z,17.53
2023-05-09T02:52:12.867Z,17.11
2023-05-09T02:54:42.997Z,18.18
2023-05-09T02:57:13.009Z,18.38
2023-05-09T02:59:42.993Z,18.52
2023-05-09T03:02:15.646Z,18.60
2023-05-09T03:04:46.454Z,19.30
2023-05-09T03:07:16.559Z,20.04
2023-05-09T03:09:46.656Z,20.82
2023-05-09T03:12:16.598Z,19.87
2023-05-09T03:14:46.538Z,20.48
2023-05-09T03:17:21.548Z,21.04
2023-05-09T03:19:51.793Z,21.39
2023-05-09T03:22:21.737Z,20.97
2023-05-09T03:24:59.976Z,22.42
2023-05-09T03:27:29.943Z,23.75
2023-05-09T03:30:00.199Z,24.85
2023-05-09T03:32:32.878Z,24.56
2023-05-09T03:35:02.878Z,24.58
2023-05-09T03:37:34.017Z,24.85
2023-05-09T03:40:04.068Z,25.45
2023-05-09T03:42:37.417Z,24.77
2023-05-09T03:45:08.676Z,25.64
2023-05-09T03:47:41.332Z,27.02
2023-05-09T03:50:12.851Z,25.32
2023-05-09T03:52:42.938Z,25.75
2023-05-09T03:55:13.717Z,25.30
2023-05-09T03:57:44.008Z,28.07
2023-05-09T04:00:15.502Z,28.39
2023-05-09T04:02:54.218Z,25.76
2023-05-09T04:05:33.727Z,26.43
2023-05-09T04:08:04.270Z,24.19
2023-05-09T04:10:35.401Z,24.84
2023-05-09T04:13:07.313Z,25.01
2023-05-09T04:15:38.426Z,25.19
2023-05-09T04:18:12.124Z,25.50
2023-05-09T04:20:42.316Z,26.14
2023-05-09T04:23:12.675Z,25.23
2023-05-09T04:25:43.079Z,24.70
2023-05-09T04:28:14.022Z,24.93
2023-05-09T04:30:44.075Z,25.81
2023-05-09T04:33:17.216Z,25.54
2023-05-09T04:35:48.879Z,25.36
2023-05-09T04:38:19.080Z,25.19
2023-05-09T04:40:49.285Z,23.65
2023-05-09T04:43:19.229Z,23.55
2023-05-09T04:45:49.285Z,22.75
2023-05-09T04:48:22.083Z,22.33
2023-05-09T04:50:53.044Z,22.30
2023-05-09T04:53:23.029Z,21.19
2023-05-09T04:55:53.417Z,21.82
2023-05-09T04:58:23.667Z,21.32
2023-05-09T05:00:53.587Z,21.57
2023-05-09T05:03:26.214Z,22.32
2023-05-09T05:05:56.206Z,21.05
2023-05-09T05:08:26.588Z,20.47
2023-05-09T05:10:57.005Z,21.32
2023-05-09T05:13:27.170Z,20.30
2023-05-09T05:16:00.769Z,20.59
2023-05-09T05:18:33.377Z,20.87
2023-05-09T05:21:03.664Z,19.69
2023-05-09T05:23:33.667Z,19.33
2023-05-09T05:26:03.969Z,19.55
2023-05-09T05:28:35.481Z,19.51
2023-05-09T05:31:06.761Z,18.83
2023-05-09T05:33:39.401Z,18.70
2023-05-09T05:36:09.929Z,18.45
2023-05-09T05:38:39.984Z,18.05
2023-05-09T05:41:11.382Z,17.64
2023-05-09T05:43:43.333Z,18.32
2023-05-09T05:46:13.504Z,17.46
2023-05-09T05:48:46.102Z,17.86
2023-05-09T05:51:16.059Z,17.14
2023-05-09T05:53:46.408Z,16.36
2023-05-09T05:56:16.478Z,15.86
2023-05-09T05:58:46.526Z,16.30
2023-05-09T06:01:16.689Z,16.80
2023-05-09T06:03:54.767Z,17.41
2023-05-09T06:06:29.147Z,17.96
2023-05-09T06:08:59.198Z,17.15
2023-05-09T06:11:32.105Z,17.76
2023-05-09T06:14:02.744Z,17.58
2023-05-09T06:16:42.679Z,20.25
2023-05-09T06:19:24.793Z,22.39
2023-05-09T06:21:55.969Z,23.34
2023-05-09T06:24:35.716Z,25.37
2023-05-09T06:27:07.739Z,24.92
2023-05-09T06:29:38.406Z,24.89
2023-05-09T06:32:08.574Z,25.72
2023-05-09T06:34:42.133Z,25.68
2023-05-09T06:37:12.193Z,25.84
2023-05-09T06:39:42.182Z,24.76
2023-05-09T06:42:12.459Z,25.84
2023-05-09T06:44:43.978Z,24.83
2023-05-09T06:47:14.038Z,24.50
2023-05-09T06:49:46.606Z,24.27
2023-05-09T06:52:16.578Z,24.43
2023-05-09T06:54:46.554Z,24.26
2023-05-09T06:57:16.620Z,24.48
2023-05-09T06:59:47.514Z,25.66
2023-05-09T07:02:17.494Z,25.72
2023-05-09T07:04:50.323Z,26.04
2023-05-09T07:07:20.376Z,24.24
2023-05-09T07:09:52.975Z,24.07
2023-05-09T07:12:25.474Z,22.81
2023-05-09T07:14:55.472Z,21.97
2023-05-09T07:17:26.141Z,21.59
2023-05-09T07:19:58.963Z,21.23
2023-05-09T07:22:31.310Z,22.01
2023-05-09T07:25:01.755Z,21.35
2023-05-09T07:27:32.102Z,20.73
2023-05-09T07:30:02.146Z,20.84
2023-05-09T07:32:32.545Z,20.50
2023-05-09T07:35:05.983Z,19.92
2023-05-09T07:37:36.024Z,19.42
2023-05-09T07:40:06.572Z,20.15
2023-05-09T07:42:37.273Z,20.16
2023-05-09T07:45:08.777Z,20.27
2023-05-09T07:47:41.145Z,19.98
2023-05-09T07:50:14.227Z,19.02
2023-05-09T07:52:44.235Z,20.63
2023-05-09T07:55:15.078Z,19.93
2023-05-09T07:57:45.219Z,18.31
2023-05-09T08:00:16.781Z,18.05
2023-05-09T08:02:46.788Z,19.00
2023-05-09T08:05:19.548Z,19.86
2023-05-09T08:07:49.652Z,18.87
2023-05-09T08:10:19.783Z,19.32
2023-05-09T08:12:50.407Z,18.92
2023-05-09T08:15:20.830Z,19.16
2023-05-09T08:17:50.906Z,19.49
2023-05-09T08:20:24.358Z,20.44
2023-05-09T08:22:54.446Z,19.39
2023-05-09T08:25:24.409Z,19.25
2023-05-09T08:27:54.326Z,18.86
2023-05-09T08:30:24.477Z,19.34
2023-05-09T08:32:54.513Z,20.20
2023-05-09T08:35:27.179Z,19.41
2023-05-09T08:37:57.209Z,18.49
2023-05-09T08:40:27.261Z,18.43
2023-05-09T08:42:57.925Z,19.61
2023-05-09T08:45:32.114Z,20.23
2023-05-09T08:48:05.472Z,19.09
2023-05-09T08:50:38.335Z,18.59
2023-05-09T08:53:09.473Z,18.04
2023-05-09T08:55:39.999Z,18.08
2023-05-09T08:58:10.034Z,20.88
2023-05-09T09:00:41.409Z,18.49
2023-05-09T09:03:11.748Z,18.35
2023-05-09T09:05:46.106Z,18.79
2023-05-09T09:08:17.082Z,17.04
2023-05-09T09:10:48.485Z,17.10
2023-05-09T09:13:20.986Z,17.41
2023-05-09T09:15:56.197Z,16.83
2023-05-09T09:18:32.719Z,15.92
2023-05-09T09:21:12.392Z,16.93
2023-05-09T09:23:44.659Z,18.13
2023-05-09T09:26:14.671Z,18.71
2023-05-09T09:28:44.882Z,17.02
2023-05-09T09:31:25.381Z,16.01
2023-05-09T09:33:55.451Z,14.68
2023-05-09T09:36:36.855Z,14.94
2023-05-09T09:39:09.309Z,15.20
2023-05-09T09:41:41.529Z,15.59
2023-05-09T09:44:11.873Z,14.55
2023-05-09T09:46:46.652Z,13.89
2023-05-09T09:49:17.990Z,13.70
2023-05-09T09:51:53.815Z,13.53
2023-05-09T09:54:24.487Z,12.93
2023-05-09T09:56:56.757Z,12.51
2023-05-09T09:59:28.853Z,12.48
2023-05-09T10:02:07.512Z,11.69
2023-05-09T10:04:41.671Z,11.72
2023-05-09T10:07:15.264Z,11.58
2023-05-09T10:09:45.706Z,11.84
2023-05-09T10:12:19.893Z,12.28
2023-05-09T10:14:51.793Z,11.98
2023-05-09T10:17:27.623Z,12.50
2023-05-09T10:19:58.584Z,12.68
2023-05-09T10:22:35.237Z,12.56
2023-05-09T10:25:08.019Z,11.93
2023-05-09T10:27:41.062Z,10.84
2023-05-09T10:30:16.981Z,10.91
2023-05-09T10:32:52.602Z,10.49
2023-05-09T10:35:27.621Z,10.86
2023-05-09T10:38:01.153Z,10.65
2023-05-09T10:40:32.169Z,11.10
2023-05-09T10:43:02.187Z,10.76
2023-05-09T10:45:32.302Z,10.39
2023-05-09T10:48:05.213Z,10.77
2023-05-09T10:50:36.149Z,10.09
2023-05-09T10:53:17.191Z,10.47
2023-05-09T10:55:57.620Z,10.87
2023-05-09T10:58:29.531Z,10.38
2023-05-09T11:01:01.846Z,9.82
2023-05-09T11:03:58.745Z,9.03
2023-05-09T11:06:46.396Z,8.71
2023-05-09T11:09:31.756Z,8.08
2023-05-09T11:12:10.691Z,8.38
2023-05-09T11:14:46.358Z,9.38
2023-05-09T11:17:18.413Z,9.32
2023-05-09T11:20:06.746Z,9.49
2023-05-09T11:22:43.198Z,10.17
2023-05-09T11:25:17.622Z,10.59
2023-05-09T11:27:49.759Z,10.42
2023-05-09T11:30:22.237Z,10.48
2023-05-09T11:32:55.422Z,10.43
2023-05-09T11:35:27.223Z,10.59
2023-05-09T11:38:04.354Z,10.55
2023-05-09T11:40:38.291Z,10.43
2023-05-09T11:43:10.582Z,10.52
2023-05-09T11:45:41.923Z,10.23
2023-05-09T11:48:12.306Z,9.82
2023-05-09T11:50:42.313Z,9.41
2023-05-09T11:53:13.676Z,9.40
2023-05-09T11:55:46.540Z,10.13
2023-05-09T11:58:16.850Z,10.55
2023-05-09T12:00:47.830Z,9.76
2023-05-09T12:03:18.429Z,8.66
2023-05-09T12:05:51.090Z,8.68
2023-05-09T12:08:21.585Z,8.35
2023-05-09T12:10:54.548Z,8.68
2023-05-09T12:13:24.698Z,8.78
2023-05-09T12:15:54.779Z,7.92
2023-05-09T12:18:26.871Z,7.47
2023-05-09T12:20:56.994Z,8.13
2023-05-09T12:23:26.967Z,7.59
2023-05-09T12:26:00.061Z,8.21
2023-05-09T12:28:30.462Z,7.28
2023-05-09T12:31:01.476Z,6.75
2023-05-09T12:33:33.027Z,6.00
2023-05-09T12:36:08.805Z,5.62
2023-05-09T12:38:39.057Z,5.61
2023-05-09T12:41:30.940Z,5.35
2023-05-09T12:44:03.812Z,5.59
2023-05-09T12:46:35.691Z,5.56
2023-05-09T12:49:06.221Z,5.52
2023-05-09T12:51:36.204Z,6.19
2023-05-09T12:54:11.125Z,5.92
2023-05-09T12:56:43.729Z,6.13
2023-05-09T12:59:15.676Z,6.30
2023-05-09T13:01:45.722Z,5.66
2023-05-09T13:04:15.692Z,5.87
2023-05-09T13:06:52.157Z,6.06
2023-05-09T13:09:23.025Z,6.50
2023-05-09T13:11:56.657Z,6.17
2023-05-09T13:14:27.074Z,5.79
2023-05-09T13:16:57.373Z,5.99
2023-05-09T13:19:27.612Z,4.92
2023-05-09T13:21:58.156Z,4.85
2023-05-09T13:24:28.163Z,4.42
2023-05-09T13:27:00.829Z,4.30
2023-05-09T13:29:30.766Z,4.22
2023-05-09T13:32:00.868Z,3.91
2023-05-09T13:34:30.823Z,4.00
2023-05-09T13:37:00.892Z,4.02
2023-05-09T13:39:31.045Z,4.49
2023-05-09T13:42:04.065Z,4.29
2023-05-09T13:44:34.118Z,4.07
2023-05-09T13:47:04.158Z,3.53
2023-05-09T13:49:34.223Z,7.15
2023-05-09T13:52:04.348Z,9.73
2023-05-09T13:54:35.351Z,7.65
2023-05-09T13:57:08.651Z,6.30
2023-05-09T13:59:38.802Z,5.72
2023-05-09T14:02:08.823Z,4.72
2023-05-09T14:04:38.836Z,4.73
2023-05-09T14:07:11.205Z,4.80
2023-05-09T14:09:42.385Z,3.67
2023-05-09T14:12:15.529Z,3.81
2023-05-09T14:14:45.627Z,3.92
2023-05-09T14:17:15.736Z,3.86
2023-05-09T14:19:45.702Z,4.23
2023-05-09T14:22:16.499Z,3.94
2023-05-09T14:24:47.860Z,3.46
2023-05-09T14:27:20.542Z,3.36
2023-05-09T14:29:50.449Z,3.24
2023-05-09T14:32:21.216Z,3.09
2023-05-09T14:34:51.290Z,3.20
2023-05-09T14:37:22.015Z,3.27
2023-05-09T14:39:51.996Z,2.83
2023-05-09T14:42:24.536Z,3.10
2023-05-09T14:44:54.547Z,3.24
2023-05-09T14:47:24.563Z,3.31
2023-05-09T14:49:54.580Z,3.36
2023-05-09T14:52:24.561Z,3.06
2023-05-09T14:54:54.485Z,3.34
2023-05-09T14:57:27.040Z,3.44
2023-05-09T15:00:03.110Z,3.43
2023-05-09T15:02:39.185Z,3.09
2023-05-09T15:05:10.358Z,3.55
2023-05-09T15:07:40.333Z,3.95
2023-05-09T15:10:11.258Z,4.48
2023-05-09T15:12:43.769Z,3.80
2023-05-09T15:15:19.728Z,3.43
2023-05-09T15:17:50.005Z,3.56
2023-05-09T15:20:21.704Z,3.53
2023-05-09T15:22:52.901Z,3.39
2023-05-09T15:25:23.652Z,3.30
2023-05-09T15:27:56.905Z,3.48
2023-05-09T15:30:26.847Z,3.68
2023-05-09T15:32:56.823Z,3.50
2023-05-09T15:35:26.866Z,3.79
2023-05-09T15:37:57.854Z,4.94
2023-05-09T15:40:28.084Z,8.26
2023-05-09T15:43:08.036Z,11.41
2023-05-09T15:45:45.561Z,7.20
2023-05-09T15:48:16.137Z,6.18
2023-05-09T15:50:48.189Z,6.47
2023-05-09T15:53:18.401Z,5.29
2023-05-09T15:55:48.380Z,4.71
2023-05-09T15:58:20.933Z,4.73
2023-05-09T16:00:51.096Z,3.92
2023-05-09T16:03:21.544Z,4.32
2023-05-09T16:05:51.807Z,4.36
2023-05-09T16:08:21.928Z,4.38
2023-05-09T16:10:52.279Z,5.09
2023-05-09T16:13:24.826Z,4.62
2023-05-09T16:15:54.963Z,4.40
2023-05-09T16:18:25.072Z,4.70
2023-05-09T16:20:55.020Z,5.38
2023-05-09T16:23:26.747Z,4.38
2023-05-09T16:25:56.699Z,4.67
2023-05-09T16:28:30.260Z,4.82
2023-05-09T16:31:01.046Z,4.56
2023-05-09T16:33:31.031Z,8.20
2023-05-09T16:36:01.669Z,6.95
2023-05-09T16:38:31.760Z,6.87
2023-05-09T16:41:01.719Z,5.71
2023-05-09T16:43:34.317Z,5.70
2023-05-09T16:46:04.330Z,5.51
2023-05-09T16:48:34.358Z,5.31
2023-05-09T16:51:04.293Z,5.36
2023-05-09T16:53:34.218Z,5.55
2023-05-09T16:56:04.242Z,5.69
2023-05-09T16:58:37.639Z,5.60
2023-05-09T17:01:07.983Z,5.97
2023-05-09T17:03:38.034Z,6.06
2023-05-09T17:06:08.604Z,6.15
2023-05-09T17:08:38.817Z,9.33
2023-05-09T17:11:08.826Z,7.11
2023-05-09T17:13:42.702Z,7.02
2023-05-09T17:16:12.888Z,6.38
2023-05-09T17:18:46.158Z,6.48
2023-05-09T17:21:17.522Z,7.56
2023-05-09T17:23:47.476Z,8.03
2023-05-09T17:26:17.687Z,7.17
2023-05-09T17:28:50.846Z,5.60
2023-05-09T17:31:20.871Z,4.77
2023-05-09T17:33:51.018Z,4.69
2023-05-09T17:36:21.084Z,4.68
2023-05-09T17:38:51.142Z,5.01
2023-05-09T17:41:23.550Z,4.83
2023-05-09T17:43:57.452Z,4.71
2023-05-09T17:46:27.592Z,4.34
2023-05-09T17:48:57.830Z,4.53
2023-05-09T17:51:27.840Z,4.48
2023-05-09T17:54:00.747Z,3.88
2023-05-09T17:56:30.736Z,3.25
2023-05-09T17:59:05.403Z,3.37
2023-05-09T18:01:35.809Z,3.45
2023-05-09T18:04:05.899Z,3.85
2023-05-09T18:06:35.913Z,3.28
2023-05-09T18:09:06.429Z,3.35
2023-05-09T18:11:38.059Z,3.22
2023-05-09T18:14:11.089Z,3.18
2023-05-09T18:16:41.108Z,3.24
2023-05-09T18:19:11.117Z,3.09
2023-05-09T18:21:41.683Z,3.13
2023-05-09T18:24:11.896Z,3.26
2023-05-09T18:26:41.869Z,3.44
2023-05-09T18:29:14.479Z,3.05
2023-05-09T18:31:44.673Z,3.26
2023-05-09T18:34:14.770Z,3.13
2023-05-09T18:36:44.691Z,3.43
2023-05-09T18:39:15.260Z,3.55
2023-05-09T18:41:45.751Z,4.49
2023-05-09T18:44:18.371Z,4.26
2023-05-09T18:46:48.408Z,6.13
2023-05-09T18:49:18.701Z,3.94
2023-05-09T18:51:48.649Z,4.01
2023-05-09T18:54:18.662Z,3.72
2023-05-09T18:56:49.734Z,3.43
2023-05-09T18:59:23.620Z,3.83
2023-05-09T19:01:53.691Z,4.34
2023-05-09T19:04:23.856Z,4.18
2023-05-09T19:06:54.124Z,3.71
2023-05-09T19:09:24.044Z,4.07
2023-05-09T19:11:54.245Z,3.98
2023-05-09T19:14:26.845Z,3.89
2023-05-09T19:16:56.883Z,4.05
2023-05-09T19:19:27.510Z,3.85
2023-05-09T19:21:57.911Z,3.83
2023-05-09T19:24:27.883Z,4.08
2023-05-09T19:26:58.007Z,3.90
2023-05-09T19:29:31.306Z,4.23
2023-05-09T19:32:01.327Z,4.23
2023-05-09T19:34:31.361Z,4.20
2023-05-09T19:37:01.365Z,4.13
2023-05-09T19:39:31.500Z,4.45
2023-05-09T19:42:01.645Z,4.25
2023-05-09T19:44:34.233Z,4.13
2023-05-09T19:47:05.425Z,4.51
2023-05-09T19:49:35.536Z,5.49
2023-05-09T19:52:05.582Z,5.35
2023-05-09T19:54:35.823Z,6.18
2023-05-09T19:57:06.634Z,5.71
2023-05-09T19:59:39.506Z,5.16
2023-05-09T20:02:10.074Z,5.51
2023-05-09T20:04:42.598Z,4.86
2023-05-09T20:07:13.687Z,5.26
2023-05-09T20:09:43.712Z,5.22
2023-05-09T20:12:14.679Z,5.34
2023-05-09T20:14:47.648Z,5.14
2023-05-09T20:17:17.737Z,4.48
2023-05-09T20:19:47.802Z,4.72
2023-05-09T20:22:17.851Z,4.29
2023-05-09T20:24:47.788Z,4.72
2023-05-09T20:27:17.855Z,4.62
2023-05-09T20:29:50.477Z,4.58
2023-05-09T20:32:22.366Z,4.04
2023-05-09T20:34:52.464Z,4.04
2023-05-09T20:37:22.503Z,3.47
2023-05-09T20:39:52.452Z,3.25
2023-05-09T20:42:23.398Z,3.48
2023-05-09T20:44:55.989Z,3.11
2023-05-09T20:47:25.968Z,3.09
2023-05-09T20:49:58.220Z,3.18
2023-05-09T20:52:28.643Z,3.76
2023-05-09T20:54:59.337Z,3.89
2023-05-09T20:57:29.381Z,3.97
2023-05-09T21:00:01.945Z,3.80
2023-05-09T21:02:32.188Z,4.01
2023-05-09T21:05:02.234Z,3.70
2023-05-09T21:07:32.224Z,4.00
2023-05-09T21:10:02.197Z,3.92
2023-05-09T21:12:32.974Z,3.50
2023-05-09T21:15:05.588Z,3.25
2023-05-09T21:17:35.639Z,3.52
2023-05-09T21:20:05.665Z,3.25
2023-05-09T21:22:35.876Z,3.06
2023-05-09T21:25:06.144Z,3.15
2023-05-09T21:27:36.265Z,3.05
2023-05-09T21:30:10.433Z,3.08
2023-05-09T21:32:40.491Z,3.64
2023-05-09T21:35:13.332Z,3.89
2023-05-09T21:37:43.261Z,2.87
2023-05-09T21:40:14.346Z,2.79
2023-05-09T21:42:44.748Z,2.85
2023-05-09T21:45:18.588Z,2.70
2023-05-09T21:47:48.976Z,2.54
2023-05-09T21:50:19.090Z,2.28
2023-05-09T21:52:49.038Z,2.34
2023-05-09T21:55:19.246Z,2.30
2023-05-09T21:57:49.416Z,2.21
2023-05-09T22:00:22.977Z,2.37
2023-05-09T22:02:53.260Z,2.45
2023-05-09T22:05:23.471Z,2.49
2023-05-09T22:07:53.629Z,2.46
2023-05-09T22:10:23.639Z,2.22
2023-05-09T22:12:53.564Z,2.20
2023-05-09T22:15:27.247Z,1.93
2023-05-09T22:17:57.195Z,2.68
2023-05-09T22:20:27.496Z,2.13
2023-05-09T22:22:57.491Z,1.79
2023-05-09T22:25:27.483Z,1.56
2023-05-09T22:27:57.876Z,1.41
2023-05-09T22:30:30.735Z,1.29
2023-05-09T22:33:01.425Z,1.30
2023-05-09T22:35:31.464Z,1.76
2023-05-09T22:38:01.540Z,2.35
2023-05-09T22:40:31.436Z,1.71
2023-05-09T22:43:01.424Z,1.09
2023-05-09T22:45:34.103Z,1.16
2023-05-09T22:48:04.201Z,1.14
2023-05-09T22:50:35.286Z,0.97
2023-05-09T22:53:05.262Z,1.03
2023-05-09T22:55:35.187Z,1.15
2023-05-09T22:58:05.181Z,1.19
2023-05-09T23:00:38.015Z,1.16
2023-05-09T23:03:08.201Z,1.07
2023-05-09T23:05:38.583Z,1.15
2023-05-09T23:08:08.688Z,1.13
2023-05-09T23:10:38.618Z,1.12
2023-05-09T23:13:08.580Z,1.03
2023-05-09T23:15:41.130Z,1.10
2023-05-09T23:18:11.252Z,0.96
2023-05-09T23:20:41.136Z,1.04
2023-05-09T23:23:11.144Z,0.94
2023-05-09T23:25:42.004Z,0.95
2023-05-09T23:28:14.674Z,0.89
2023-05-09T23:30:47.231Z,0.89
2023-05-09T23:33:17.137Z,1.01
2023-05-09T23:35:47.069Z,0.90
2023-05-09T23:38:17.270Z,0.99
2023-05-09T23:40:47.624Z,0.82
2023-05-09T23:43:18.267Z,0.95
2023-05-09T23:45:50.744Z,0.84
2023-05-09T23:48:20.600Z,0.74
2023-05-09T23:50:50.489Z,0.71
2023-05-09T23:53:20.500Z,0.74
2023-05-09T23:55:50.518Z,0.72
2023-05-09T23:58:20.735Z,0.80
